Time;durP1;ratioP1;P1;durP2;ratioP2;P2;SDS_P1;SDS_P2;PMS_P1;PMS_P2;Temp;Humidity;BMP_temperature;BMP_pressure;BME280_temperature;BME280_humidity;BME280_pressure;Samples;Min_cycle;Max_cycle;Signal;HPM_P1;HPM_P2
2023/05/10 00:00:13;;;;;;;1.30;0.50;;;;;;;16.48;78.50;96022.88;4977086;28;20046;-81
2023/05/10 00:02:41;;;;;;;2.35;0.65;;;;;;;16.46;79.12;96023.13;4976526;28;20102;-81
2023/05/10 00:05:09;;;;;;;0.50;0.45;;;;;;;16.44;78.93;96017.28;4976434;28;20055;-81
2023/05/10 00:07:37;;;;;;;1.20;0.40;;;;;;;16.45;80.34;96023.34;4977072;28;20114;-81
2023/05/10 00:10:05;;;;;;;1.90;0.40;;;;;;;16.44;77.40;96024.38;4977250;28;20046;-81
2023/05/10 00:12:34;;;;;;;1.50;0.95;;;;;;;16.45;80.58;96018.88;4978346;28;20054;-81
2023/05/10 00:15:02;;;;;;;1.10;0.65;;;;;;;16.48;80.12;96013.13;4978145;28;20061;-81
2023/05/10 00:17:30;;;;;;;0.60;0.50;;;;;;;16.41;76.29;96023.00;4978525;28;20047;-81
2023/05/10 00:19:57;;;;;;;1.30;0.70;;;;;;;16.40;78.43;96025.88;4976308;28;20047;-81
2023/05/10 00:22:25;;;;;;;0.50;0.50;;;;;;;16.36;78.06;96012.38;4976571;28;20061;-81
2023/05/10 00:24:53;;;;;;;0.85;0.77;;;;;;;16.36;79.15;96009.75;4976775;28;20066;-81
2023/05/10 00:27:20;;;;;;;0.55;0.55;;;;;;;16.37;77.23;96010.53;4976430;28;20046;-81
2023/05/10 00:29:49;;;;;;;0.63;0.50;;;;;;;16.39;80.46;96013.75;4976019;28;20050;-81
2023/05/10 00:32:17;;;;;;;0.98;0.50;;;;;;;16.41;79.51;96011.69;4976943;28;20057;-80
2023/05/10 00:34:45;;;;;;;0.68;0.65;;;;;;;16.44;79.43;96005.94;4975675;28;20302;-81
2023/05/10 00:37:12;;;;;;;0.90;0.60;;;;;;;16.46;80.04;96019.66;4977072;28;20053;-81
2023/05/10 00:39:40;;;;;;;0.47;0.30;;;;;;;16.46;78.92;96019.66;4979263;28;20054;-81
2023/05/10 00:42:08;;;;;;;0.40;0.40;;;;;;;16.42;78.52;96021.16;4985696;28;20053;-81
2023/05/10 00:44:35;;;;;;;0.75;0.38;;;;;;;16.42;79.11;96021.16;4985407;28;20050;-81
2023/05/10 00:47:05;;;;;;;2.60;0.43;;;;;;;16.39;78.20;96019.78;4982654;28;20082;-81
2023/05/10 00:49:32;;;;;;;0.98;0.50;;;;;;;16.38;78.43;96012.16;4977696;28;20551;-81
2023/05/10 00:52:01;;;;;;;0.70;0.60;;;;;;;16.36;79.01;96017.63;4977893;28;20088;-82
2023/05/10 00:54:29;;;;;;;2.25;1.00;;;;;;;16.34;79.87;96019.69;4976995;28;20077;-81
2023/05/10 00:56:57;;;;;;;2.45;0.90;;;;;;;16.35;80.32;96018.66;4977186;28;20053;-81
2023/05/10 00:59:25;;;;;;;1.25;0.73;;;;;;;16.34;80.17;96022.34;4978332;28;20055;-81
2023/05/10 01:01:53;;;;;;;1.60;0.90;;;;;;;16.33;80.26;96018.09;4977368;28;20430;-81
2023/05/10 01:04:25;;;;;;;0.75;0.63;;;;;;;16.27;77.55;96019.03;4977611;28;20463;-81
2023/05/10 01:06:53;;;;;;;;;;;;;;;16.22;78.93;96021.53;4977856;28;20462;-81
2023/05/10 01:09:21;;;;;;;1.52;1.15;;;;;;;16.15;78.43;96021.66;4977194;28;19949;-81
2023/05/10 01:11:50;;;;;;;1.67;0.80;;;;;;;16.10;78.74;96018.16;4976689;28;20058;-81
2023/05/10 01:14:19;;;;;;;1.65;0.70;;;;;;;16.00;76.70;96030.03;4976439;28;20126;-81
2023/05/10 01:16:49;;;;;;;2.80;1.52;;;;;;;15.93;79.05;96021.47;4976026;28;20546;-81
2023/05/10 01:19:24;;;;;;;2.47;1.00;;;;;;;15.97;81.56;96032.34;4977110;28;20510;-81
2023/05/10 01:22:02;;;;;;;0.65;0.60;;;;;;;15.98;80.74;96026.03;4976023;28;20521;-81
2023/05/10 01:25:11;;;;;;;1.67;0.80;;;;;;;16.01;81.55;96034.28;4975433;28;20054;-81
2023/05/10 01:28:15;;;;;;;0.40;0.32;;;;;;;16.00;79.46;96032.66;4975536;28;20061;-81
2023/05/10 01:31:07;;;;;;;3.58;2.00;;;;;;;15.98;81.02;96034.75;4976120;28;20051;-81
2023/05/10 01:33:42;;;;;;;2.23;1.23;;;;;;;15.98;81.15;96036.56;4975909;28;20470;-81
2023/05/10 01:36:17;;;;;;;1.33;0.50;;;;;;;15.94;80.85;96038.03;4975747;28;20328;-81
2023/05/10 01:38:51;;;;;;;0.57;0.57;;;;;;;15.95;80.38;96039.66;4975669;28;20050;-80
2023/05/10 01:41:25;;;;;;;1.23;1.02;;;;;;;15.94;80.19;96038.84;4974760;28;20130;-81
2023/05/10 01:43:58;;;;;;;3.08;1.30;;;;;;;15.94;81.04;96044.13;4975266;28;20059;-81
2023/05/10 01:46:28;;;;;;;;;;;;;;;15.90;79.37;96047.44;4977506;28;20089;-81
2023/05/10 01:49:00;;;;;;;1.15;0.60;;;;;;;15.81;79.35;96052.25;4978933;28;20008;-81
2023/05/10 01:51:36;;;;;;;0.73;0.40;;;;;;;15.71;79.44;96057.22;4979914;28;20046;-81
2023/05/10 01:54:06;;;;;;;0.70;0.20;;;;;;;15.57;77.08;96064.53;4978621;28;20066;-81
2023/05/10 01:56:37;;;;;;;0.35;0.28;;;;;;;15.48;77.13;96066.69;4979447;28;20059;-81
2023/05/10 01:59:09;;;;;;;0.82;0.10;;;;;;;15.42;78.18;96060.50;4979025;28;20057;-81
2023/05/10 02:01:38;;;;;;;0.30;0.25;;;;;;;15.34;76.37;96067.88;4978679;28;20054;-81
2023/05/10 02:04:08;;;;;;;1.48;0.73;;;;;;;15.25;77.91;96056.91;4978728;28;20434;-81
2023/05/10 02:06:39;;;;;;;0.00;0.00;;;;;;;15.17;75.89;96065.09;4978108;28;20050;-81
2023/05/10 02:09:07;;;;;;;0.60;0.20;;;;;;;15.11;76.37;96066.81;4979235;28;20081;-81
2023/05/10 02:11:38;;;;;;;0.00;0.00;;;;;;;15.10;75.70;96074.91;4979961;28;20054;-81
2023/05/10 02:14:08;;;;;;;3.30;0.57;;;;;;;15.09;75.70;96071.47;4978908;28;20050;-81
2023/05/10 02:16:37;;;;;;;1.75;0.30;;;;;;;15.08;77.59;96079.56;4977644;28;20061;-81
2023/05/10 02:19:08;;;;;;;0.20;0.15;;;;;;;15.06;77.56;96081.63;4962733;28;20265;-81
2023/05/10 02:21:36;;;;;;;0.10;0.10;;;;;;;15.01;75.75;96092.78;4937705;29;20058;-81
2023/05/10 02:24:06;;;;;;;0.30;0.10;;;;;;;14.96;76.19;96090.03;4940277;29;20082;-81
2023/05/10 02:26:36;;;;;;;0.28;0.20;;;;;;;14.94;76.70;96084.22;4940705;29;20427;-81
2023/05/10 02:29:05;;;;;;;0.70;0.22;;;;;;;14.90;76.69;96093.53;4940322;29;20103;-81
2023/05/10 02:31:34;;;;;;;7.35;0.60;;;;;;;14.87;78.06;96092.16;4939329;29;20258;-81
2023/05/10 02:34:03;;;;;;;0.80;0.50;;;;;;;14.84;77.67;96096.00;4938562;29;20063;-81
2023/05/10 02:36:33;;;;;;;1.35;0.20;;;;;;;14.79;76.28;96093.25;4940458;29;20062;-81
2023/05/10 02:39:02;;;;;;;0.38;0.20;;;;;;;14.76;75.79;96090.28;4939453;29;20083;-81
2023/05/10 02:41:33;;;;;;;2.15;0.60;;;;;;;14.72;77.70;96104.88;4939827;29;20061;-81
2023/05/10 02:44:03;;;;;;;0.40;0.38;;;;;;;14.69;78.39;96090.34;4949544;29;20047;-81
2023/05/10 02:46:31;;;;;;;1.40;0.52;;;;;;;14.70;78.23;96101.66;4940108;29;20600;-81
2023/05/10 02:48:59;;;;;;;2.28;0.30;;;;;;;14.70;78.01;96097.22;4953557;29;20055;-81
2023/05/10 02:51:31;;;;;;;0.90;0.28;;;;;;;14.72;77.52;96107.50;4958684;28;20051;-81
2023/05/10 02:54:08;;;;;;;1.48;0.35;;;;;;;14.71;78.81;96103.25;4958285;29;20058;-81
2023/05/10 02:56:41;;;;;;;1.90;0.40;;;;;;;14.69;77.08;96106.09;4958102;29;20051;-81
2023/05/10 02:59:09;;;;;;;3.03;0.50;;;;;;;14.63;76.67;96107.00;4957024;28;20446;-81
2023/05/10 03:01:36;;;;;;;2.15;0.50;;;;;;;14.57;77.43;96108.66;4958300;28;20130;-81
2023/05/10 03:04:04;;;;;;;0.73;0.40;;;;;;;14.51;77.40;96112.13;4957096;28;20107;-81
2023/05/10 03:06:32;;;;;;;0.82;0.32;;;;;;;14.43;76.07;96117.69;4957077;29;20047;-81
2023/05/10 03:09:03;;;;;;;0.40;0.40;;;;;;;14.36;75.59;96117.72;4957377;28;20482;-81
2023/05/10 03:11:42;;;;;;;0.70;0.65;;;;;;;14.33;76.78;96120.00;4957559;29;20061;-81
2023/05/10 03:14:22;;;;;;;0.52;0.52;;;;;;;14.28;75.52;96118.03;4958110;29;20057;-81
2023/05/10 03:16:57;;;;;;;0.50;0.50;;;;;;;14.21;75.11;96127.75;4958394;29;20066;-80
2023/05/10 03:19:31;;;;;;;1.85;0.40;;;;;;;14.18;75.92;96121.13;4959216;29;20047;-81
2023/05/10 03:22:04;;;;;;;1.30;0.57;;;;;;;14.20;77.72;96119.09;4959188;29;20426;-81
2023/05/10 03:24:36;;;;;;;0.68;0.65;;;;;;;14.26;79.10;96120.06;4960160;29;20051;-81
2023/05/10 03:27:05;;;;;;;0.80;0.77;;;;;;;14.29;78.72;96122.22;4958971;29;20051;-81
2023/05/10 03:29:33;;;;;;;1.00;0.88;;;;;;;14.35;79.00;96126.63;4980543;23;20047;-77
2023/05/10 03:32:01;;;;;;;1.15;0.70;;;;;;;14.35;77.61;96131.88;4958214;28;20065;-76
2023/05/10 03:34:31;;;;;;;1.30;1.20;;;;;;;14.38;78.80;96134.03;4955489;28;20051;-76
2023/05/10 03:36:58;;;;;;;1.63;0.95;;;;;;;14.37;76.86;96135.06;4955662;29;20054;-76
2023/05/10 03:39:26;;;;;;;0.73;0.73;;;;;;;14.32;76.78;96134.94;4955513;28;20051;-76
2023/05/10 03:41:55;;;;;;;1.17;1.02;;;;;;;14.31;75.52;96138.56;4955538;29;20511;-76
2023/05/10 03:44:22;;;;;;;1.25;0.90;;;;;;;14.32;77.75;96140.19;4955055;29;20047;-76
2023/05/10 03:46:50;;;;;;;1.48;1.38;;;;;;;14.34;78.16;96150.44;4955509;29;20400;-76
2023/05/10 03:49:17;;;;;;;0.80;0.80;;;;;;;14.36;79.30;96153.66;4955492;29;20130;-76
2023/05/10 03:51:45;;;;;;;1.73;1.13;;;;;;;14.39;78.41;96159.28;4955135;29;20047;-76
2023/05/10 03:54:12;;;;;;;1.55;1.10;;;;;;;14.40;77.75;96154.81;4955318;29;20094;-76
2023/05/10 03:56:40;;;;;;;2.22;1.10;;;;;;;14.42;78.59;96158.84;4955786;29;20051;-76
2023/05/10 03:59:09;;;;;;;2.15;1.00;;;;;;;14.45;78.14;96159.41;4955390;29;20055;-76
2023/05/10 04:01:36;;;;;;;1.95;1.15;;;;;;;14.43;76.27;96155.22;4955266;29;20077;-76
2023/05/10 04:04:04;;;;;;;2.08;1.40;;;;;;;14.45;78.07;96162.03;4954953;29;20061;-76
2023/05/10 04:06:32;;;;;;;1.95;1.27;;;;;;;14.50;78.71;96164.84;4955226;29;20117;-76
2023/05/10 04:09:03;;;;;;;1.38;0.90;;;;;;;14.55;79.79;96152.69;4954812;28;20054;-76
2023/05/10 04:11:31;;;;;;;1.73;1.17;;;;;;;14.55;77.88;96154.53;4955049;29;20069;-76
2023/05/10 04:13:58;;;;;;;1.35;1.25;;;;;;;14.54;78.26;96150.25;4954926;29;20051;-76
2023/05/10 04:16:27;;;;;;;1.40;1.30;;;;;;;14.57;78.29;96161.16;4954940;29;20530;-76
2023/05/10 04:18:55;;;;;;;2.78;1.00;;;;;;;14.57;79.24;96160.34;4954817;29;20055;-76
2023/05/10 04:21:23;;;;;;;2.80;1.33;;;;;;;14.58;79.14;96154.06;4954822;29;20055;-76
2023/05/10 04:23:50;;;;;;;2.50;1.50;;;;;;;14.56;77.46;96153.47;4954694;29;20047;-76
2023/05/10 04:26:18;;;;;;;1.88;1.20;;;;;;;14.59;78.66;96158.31;4954904;29;20137;-76
2023/05/10 04:28:45;;;;;;;1.00;1.00;;;;;;;14.59;79.58;96158.31;4954733;29;20412;-76
2023/05/10 04:31:13;;;;;;;1.40;1.30;;;;;;;14.61;79.92;96153.66;4954399;29;20529;-76
2023/05/10 04:33:42;;;;;;;1.42;1.33;;;;;;;14.61;80.74;96162.31;4954372;29;20047;-76
2023/05/10 04:36:09;;;;;;;2.15;1.85;;;;;;;14.62;80.55;96156.03;4954460;29;20047;-76
2023/05/10 04:38:37;;;;;;;1.17;1.08;;;;;;;14.61;81.02;96157.06;4954732;29;20059;-75
2023/05/10 04:41:06;;;;;;;1.42;1.33;;;;;;;14.64;80.35;96155.84;4954333;29;20055;-76
2023/05/10 04:43:34;;;;;;;2.75;1.45;;;;;;;14.64;81.08;96161.09;4954387;29;20495;-76
2023/05/10 04:46:01;;;;;;;1.73;1.27;;;;;;;14.62;79.18;96158.66;4954387;29;20105;-76
2023/05/10 04:48:29;;;;;;;2.03;1.50;;;;;;;14.62;79.30;96160.50;4954491;29;20582;-76
2023/05/10 04:50:58;;;;;;;1.48;1.38;;;;;;;14.61;78.41;96164.16;4954350;29;20435;-75
2023/05/10 04:53:26;;;;;;;2.00;1.63;;;;;;;14.63;79.49;96165.53;4953997;29;20057;-76
2023/05/10 04:55:53;;;;;;;1.83;1.60;;;;;;;14.68;80.90;96161.47;4954337;29;20054;-76
2023/05/10 04:58:21;;;;;;;1.85;1.45;;;;;;;14.71;80.96;96169.69;4954420;29;20486;-76
2023/05/10 05:00:49;;;;;;;2.35;1.63;;;;;;;14.73;80.77;96166.84;4954079;29;20051;-76
2023/05/10 05:03:17;;;;;;;2.60;1.70;;;;;;;14.74;80.15;96171.88;4953898;29;20047;-79
2023/05/10 05:05:44;;;;;;;2.30;1.63;;;;;;;14.71;78.05;96172.31;4954646;29;20499;-75
2023/05/10 05:08:13;;;;;;;3.25;2.55;;;;;;;14.72;78.95;96173.13;4953079;28;20055;-76
2023/05/10 05:10:41;;;;;;;2.15;1.92;;;;;;;14.69;78.07;96174.34;4954566;28;20055;-75
2023/05/10 05:13:08;;;;;;;11.18;7.13;;;;;;;14.69;78.59;96174.34;4975087;28;20046;-75
2023/05/10 05:15:38;;;;;;;3.60;2.15;;;;;;;14.72;78.36;96181.81;4970057;28;20077;-76
2023/05/10 05:18:06;;;;;;;3.97;2.15;;;;;;;14.72;79.15;96181.00;4967500;29;20061;-75
2023/05/10 05:20:34;;;;;;;2.78;2.40;;;;;;;14.72;78.69;96173.94;4964050;28;20051;-75
2023/05/10 05:23:01;;;;;;;3.00;2.80;;;;;;;14.73;79.31;96179.97;4959429;29;20070;-75
2023/05/10 05:25:30;;;;;;;3.25;2.85;;;;;;;14.74;79.89;96185.00;4958503;28;20423;-76
2023/05/10 05:27:58;;;;;;;6.32;2.63;;;;;;;14.77;79.87;96192.44;4958291;29;20054;-76
2023/05/10 05:30:27;;;;;;;5.53;3.90;;;;;;;14.80;79.46;96192.03;4964252;28;20062;-75
2023/05/10 05:32:55;;;;;;;2.58;2.38;;;;;;;14.79;77.57;96190.41;4962438;28;20040;-75
2023/05/10 05:35:22;;;;;;;2.05;1.95;;;;;;;14.78;78.31;96194.06;4976852;28;20047;-76
2023/05/10 05:37:50;;;;;;;3.92;1.80;;;;;;;14.81;78.23;96193.63;4986834;28;20047;-75
2023/05/10 05:40:17;;;;;;;2.78;2.08;;;;;;;14.82;76.66;96197.88;4990181;28;20062;-75
2023/05/10 05:42:46;;;;;;;2.50;2.30;;;;;;;14.83;77.65;96196.03;4971223;28;20055;-75
2023/05/10 05:45:14;;;;;;;2.20;1.67;;;;;;;14.90;78.41;96201.22;4962608;28;20055;-75
2023/05/10 05:47:42;;;;;;;2.92;1.90;;;;;;;14.90;76.29;96201.22;4967764;28;20182;-75
2023/05/10 05:50:10;;;;;;;1.70;1.60;;;;;;;14.83;75.44;96204.72;4971972;28;20105;-75
2023/05/10 05:52:38;;;;;;;2.28;1.80;;;;;;;14.80;76.06;96207.78;4972596;28;20070;-75
2023/05/10 05:55:06;;;;;;;1.95;1.30;;;;;;;14.81;76.46;96203.31;4957421;28;20043;-75
2023/05/10 05:57:33;;;;;;;4.30;1.80;;;;;;;14.81;75.74;96204.13;4969452;28;20046;-79
2023/05/10 06:00:03;;;;;;;1.83;1.50;;;;;;;14.82;77.59;96210.16;4957376;29;20419;-76
2023/05/10 06:02:30;;;;;;;1.88;1.50;;;;;;;14.83;77.65;96207.34;4981464;28;20059;-77
2023/05/10 06:04:58;;;;;;;2.17;1.30;;;;;;;14.85;76.95;96215.00;4961696;28;20039;-78
2023/05/10 06:07:26;;;;;;;1.98;1.15;;;;;;;14.86;77.46;96210.53;4972420;28;20420;-76
2023/05/10 06:10:31;;;;;;;2.45;1.10;;;;;;;14.86;77.36;96215.78;4967909;28;20454;-79
2023/05/10 06:12:58;;;;;;;1.77;1.42;;;;;;;14.82;78.15;96224.13;4976786;28;20395;-76
2023/05/10 06:15:27;;;;;;;1.13;0.90;;;;;;;14.80;78.71;96217.47;4978994;28;20046;-76
2023/05/10 06:17:55;;;;;;;0.80;0.80;;;;;;;14.79;78.02;96219.28;4957768;28;20057;-76
2023/05/10 06:20:23;;;;;;;3.72;1.23;;;;;;;14.80;78.79;96215.66;4949781;28;20051;-76
2023/05/10 06:22:51;;;;;;;1.23;1.00;;;;;;;14.87;79.57;96217.38;4973629;28;20146;-77
2023/05/10 06:25:19;;;;;;;1.15;1.05;;;;;;;14.89;78.42;96215.34;4944914;28;20052;-77
2023/05/10 06:27:46;;;;;;;1.65;1.20;;;;;;;14.88;77.31;96222.44;4962356;28;20368;-76
2023/05/10 06:30:19;;;;;;;1.45;0.95;;;;;;;14.83;76.91;96230.97;4954365;28;20638;-76
2023/05/10 06:32:49;;;;;;;1.92;0.90;;;;;;;14.79;75.47;96227.16;4956963;28;20071;-77
2023/05/10 06:35:17;;;;;;;0.95;0.93;;;;;;;14.76;75.41;96235.50;4956753;29;20142;-77
2023/05/10 06:37:46;;;;;;;2.15;0.93;;;;;;;14.78;75.55;96238.69;4957746;28;20144;-77
2023/05/10 06:40:14;;;;;;;2.47;1.15;;;;;;;14.79;76.32;96242.13;4958418;28;20058;-77
2023/05/10 06:42:41;;;;;;;0.90;0.90;;;;;;;14.80;76.74;96244.53;4956990;29;20562;-77
2023/05/10 06:45:10;;;;;;;1.13;0.93;;;;;;;14.82;75.75;96249.56;4963608;28;20489;-76
2023/05/10 06:47:38;;;;;;;1.90;1.45;;;;;;;14.84;76.49;96250.16;4975767;28;20124;-77
2023/05/10 06:50:08;;;;;;;1.90;1.70;;;;;;;14.88;77.36;96248.69;4975901;28;20057;-77
2023/05/10 06:52:36;;;;;;;3.60;2.42;;;;;;;14.86;75.08;96252.56;4974964;28;20046;-77
2023/05/10 06:55:04;;;;;;;1.30;1.20;;;;;;;14.84;75.68;96247.50;4963418;28;20106;-77
2023/05/10 06:57:32;;;;;;;4.25;3.85;;;;;;;14.81;74.90;96254.00;4958401;28;20062;-77
2023/05/10 07:00:00;;;;;;;4.85;2.97;;;;;;;14.76;76.05;96253.88;4958334;28;20423;-77
2023/05/10 07:02:28;;;;;;;2.90;2.60;;;;;;;14.72;75.43;96257.94;4971726;28;20805;-77
2023/05/10 07:04:56;;;;;;;3.63;3.00;;;;;;;14.75;75.66;96259.31;4959503;28;20114;-76
2023/05/10 07:07:28;;;;;;;2.50;2.30;;;;;;;14.77;75.83;96260.72;4957923;29;20058;-76
2023/05/10 07:09:57;;;;;;;2.83;2.40;;;;;;;14.77;75.00;96263.34;4957935;29;20058;-77
2023/05/10 07:12:25;;;;;;;3.25;2.47;;;;;;;14.80;76.07;96259.47;4963408;28;20135;-76
2023/05/10 07:14:53;;;;;;;2.58;2.38;;;;;;;14.84;76.44;96266.69;4964174;28;20047;-76
2023/05/10 07:17:20;;;;;;;2.05;1.85;;;;;;;14.90;76.50;96269.50;4959553;28;20083;-77
2023/05/10 07:19:48;;;;;;;2.83;2.05;;;;;;;14.92;75.92;96270.09;4976607;28;20057;-77
2023/05/10 07:22:16;;;;;;;2.45;1.77;;;;;;;14.94;74.80;96271.47;4972225;28;20051;-76
2023/05/10 07:24:45;;;;;;;2.53;1.85;;;;;;;14.94;73.71;96273.28;4958340;28;20078;-77
2023/05/10 07:27:13;;;;;;;3.92;2.42;;;;;;;14.95;75.76;96267.81;4961341;28;20058;-76
2023/05/10 07:29:41;;;;;;;2.15;1.77;;;;;;;14.95;75.09;96270.44;4963274;28;20065;-76
2023/05/10 07:32:08;;;;;;;1.58;1.38;;;;;;;14.95;73.30;96269.63;4960115;28;20050;-77
2023/05/10 07:34:36;;;;;;;4.50;1.83;;;;;;;14.98;74.79;96269.22;4972701;28;20053;-77
2023/05/10 07:37:04;;;;;;;4.63;2.58;;;;;;;15.06;75.97;96268.91;4957721;28;20055;-76
2023/05/10 07:39:31;;;;;;;4.93;2.65;;;;;;;15.13;74.63;96276.72;4961986;28;20515;-77
2023/05/10 07:42:00;;;;;;;6.50;2.35;;;;;;;15.14;73.25;96271.25;4971639;28;20050;-77
2023/05/10 07:44:27;;;;;;;1.80;1.65;;;;;;;15.15;75.24;96277.31;4963332;28;20054;-77
2023/05/10 07:46:55;;;;;;;3.22;2.42;;;;;;;15.18;75.79;96274.25;4967447;28;20055;-76
2023/05/10 07:49:23;;;;;;;4.50;2.83;;;;;;;15.20;75.65;96273.03;4967677;28;20054;-77
2023/05/10 07:51:51;;;;;;;2.92;2.60;;;;;;;15.21;73.72;96282.50;4971070;28;20055;-76
2023/05/10 07:54:19;;;;;;;2.70;1.85;;;;;;;15.19;72.61;96271.41;4966859;28;20057;-77
2023/05/10 07:56:47;;;;;;;2.30;2.08;;;;;;;15.21;72.08;96281.69;4955687;28;20133;-76
2023/05/10 07:59:18;;;;;;;2.15;1.95;;;;;;;15.26;74.33;96284.47;4956260;28;20083;-76
2023/05/10 08:01:46;;;;;;;3.22;1.92;;;;;;;15.37;72.98;96275.88;4963343;28;20046;-77
2023/05/10 08:04:13;;;;;;;2.55;1.58;;;;;;;15.53;72.60;96274.47;4964313;28;20051;-76
2023/05/10 08:06:41;;;;;;;2.28;1.77;;;;;;;15.64;73.55;96272.91;4963077;28;20051;-76
2023/05/10 08:09:09;;;;;;;1.48;1.20;;;;;;;15.77;73.90;96279.88;4957580;28;20057;-77
2023/05/10 08:11:37;;;;;;;1.55;1.45;;;;;;;15.88;73.25;96273.06;4957088;28;20043;-76
2023/05/10 08:14:05;;;;;;;5.25;2.45;;;;;;;15.92;71.33;96277.66;4976142;28;20429;-76
2023/05/10 08:16:34;;;;;;;3.00;1.60;;;;;;;15.94;73.33;96283.50;4997264;28;20050;-77
2023/05/10 08:19:01;;;;;;;1.77;1.40;;;;;;;15.91;71.46;96281.28;4991991;28;20105;-77
2023/05/10 08:21:31;;;;;;;2.17;1.98;;;;;;;15.90;72.87;96290.22;4976215;28;20047;-77
2023/05/10 08:23:58;;;;;;;2.00;1.27;;;;;;;15.89;73.84;96283.34;4974004;28;20055;-77
2023/05/10 08:26:26;;;;;;;1.90;1.70;;;;;;;15.87;71.20;96285.38;4973065;28;20059;-77
2023/05/10 08:28:53;;;;;;;1.35;1.20;;;;;;;15.87;72.79;96293.28;4974544;28;20051;-77
2023/05/10 08:31:21;;;;;;;1.45;1.13;;;;;;;15.88;72.85;96297.53;4965984;28;20051;-77
2023/05/10 08:33:51;;;;;;;1.63;1.52;;;;;;;15.89;71.87;96303.59;4962766;28;20106;-77
2023/05/10 08:36:21;;;;;;;1.88;1.15;;;;;;;15.86;73.30;96304.84;4956191;28;20071;-77
2023/05/10 08:38:51;;;;;;;3.25;0.90;;;;;;;15.85;73.69;96298.78;4955511;28;20047;-77
2023/05/10 08:41:20;;;;;;;1.27;0.90;;;;;;;15.84;73.29;96306.88;4955184;28;20113;-77
2023/05/10 08:43:48;;;;;;;2.35;0.50;;;;;;;15.81;73.09;96296.81;4954501;29;20055;-77
2023/05/10 08:46:18;;;;;;;1.48;0.80;;;;;;;15.80;73.28;96309.16;4963388;28;20057;-79
2023/05/10 08:48:47;;;;;;;1.35;0.65;;;;;;;15.81;73.33;96297.63;4971258;28;20106;-80
2023/05/10 08:51:18;;;;;;;0.60;0.60;;;;;;;15.85;73.38;96311.09;4970525;28;20053;-77
2023/05/10 08:53:47;;;;;;;2.05;1.00;;;;;;;15.91;72.61;96301.53;4972247;28;20430;-77
2023/05/10 08:56:17;;;;;;;0.98;0.70;;;;;;;15.99;70.85;96307.28;4953814;28;20051;-77
2023/05/10 08:58:45;;;;;;;0.80;0.80;;;;;;;16.11;72.60;96302.06;4954708;29;20119;-77
2023/05/10 09:01:14;;;;;;;1.10;0.88;;;;;;;16.21;71.46;96301.53;4955929;28;20062;-80
2023/05/10 09:03:42;;;;;;;0.82;0.82;;;;;;;16.31;71.71;96314.13;4954995;28;20063;-77
2023/05/10 09:06:12;;;;;;;2.03;1.10;;;;;;;16.42;72.98;96305.47;4956772;28;20419;-77
2023/05/10 09:08:42;;;;;;;1.90;1.25;;;;;;;16.44;70.26;96317.41;4955239;28;20059;-77
2023/05/10 09:11:11;;;;;;;1.30;1.20;;;;;;;16.40;68.90;96318.88;4954810;28;20109;-77
2023/05/10 09:13:39;;;;;;;2.00;1.00;;;;;;;16.32;69.85;96321.81;4962265;28;20051;-77
2023/05/10 09:16:07;;;;;;;2.58;1.92;;;;;;;16.21;71.90;96328.66;4971638;28;20062;-77
2023/05/10 09:18:49;;;;;;;2.83;2.60;;;;;;;16.09;71.77;96322.53;4960085;28;20146;-77
2023/05/10 09:21:17;;;;;;;5.88;2.25;;;;;;;16.02;71.42;96330.50;4973753;28;20495;-78
2023/05/10 09:23:46;;;;;;;2.83;2.38;;;;;;;16.00;73.00;96339.66;4962258;28;20058;-77
2023/05/10 09:26:15;;;;;;;2.38;1.60;;;;;;;15.97;73.76;96335.66;4965173;28;20074;-77
2023/05/10 09:28:54;;;;;;;1.40;1.20;;;;;;;15.94;74.71;96344.00;4972903;28;20050;-77
2023/05/10 09:31:22;;;;;;;1.90;1.40;;;;;;;15.93;73.74;96342.38;4954426;28;20082;-77
2023/05/10 09:33:51;;;;;;;2.00;1.48;;;;;;;15.91;73.60;96339.16;4960139;28;20562;-77
2023/05/10 09:36:18;;;;;;;1.67;1.52;;;;;;;15.90;72.19;96348.09;4976680;28;20057;-77
2023/05/10 09:38:48;;;;;;;1.55;1.40;;;;;;;15.91;75.14;96341.78;4957641;28;20059;-77
2023/05/10 09:41:17;;;;;;;2.80;1.20;;;;;;;15.94;75.60;96341.34;4965215;28;20078;-77
2023/05/10 09:43:45;;;;;;;2.22;1.20;;;;;;;16.00;75.90;96343.09;4963241;28;20047;-77
2023/05/10 09:46:13;;;;;;;2.95;1.30;;;;;;;16.07;76.39;96348.28;4982691;28;20071;-77
2023/05/10 09:48:46;;;;;;;1.65;1.33;;;;;;;16.06;73.80;96346.66;4975573;28;20058;-77
2023/05/10 09:51:20;;;;;;;1.75;0.98;;;;;;;15.99;70.94;96341.50;4973404;29;20051;-78
2023/05/10 09:53:50;;;;;;;1.30;0.70;;;;;;;15.95;74.19;96340.31;4982901;28;20046;-77
2023/05/10 09:56:37;;;;;;;1.40;0.93;;;;;;;16.00;72.99;96348.34;4971430;29;20048;-77
2023/05/10 09:59:05;;;;;;;0.80;0.80;;;;;;;16.02;71.65;96337.59;4976656;28;20051;-77
2023/05/10 10:01:32;;;;;;;2.35;0.75;;;;;;;16.07;72.64;96337.75;4965223;28;20059;-77
2023/05/10 10:04:04;;;;;;;0.90;0.57;;;;;;;16.15;70.68;96339.25;4965488;28;20047;-77
2023/05/10 10:06:39;;;;;;;0.70;0.70;;;;;;;16.18;72.95;96336.16;4997834;23;20051;-82
2023/05/10 10:09:18;;;;;;;1.05;0.80;;;;;;;16.22;71.96;96339.97;4974517;28;20055;-81
2023/05/10 10:11:47;;;;;;;2.63;0.68;;;;;;;16.20;71.67;96337.56;4973854;29;20051;-82
2023/05/10 10:14:15;;;;;;;0.75;0.75;;;;;;;16.14;70.50;96335.03;4990675;28;20070;-82
2023/05/10 10:16:44;;;;;;;2.42;0.88;;;;;;;16.08;70.92;96335.94;4978245;28;20114;-82
2023/05/10 10:19:35;;;;;;;0.55;0.52;;;;;;;15.99;71.92;96330.97;4970316;28;20062;-82
2023/05/10 10:22:04;;;;;;;2.40;1.25;;;;;;;15.95;72.07;96329.00;4966935;29;20055;-82
2023/05/10 10:24:34;;;;;;;1.08;0.93;;;;;;;15.95;72.96;96334.25;4992276;28;20039;-82
2023/05/10 10:27:13;;;;;;;0.52;0.52;;;;;;;15.93;69.96;96331.06;4985395;28;20043;-82
2023/05/10 10:29:50;;;;;;;0.57;0.57;;;;;;;15.95;70.66;96329.00;4987357;28;20082;-81
2023/05/10 10:32:26;;;;;;;2.40;0.70;;;;;;;15.94;70.08;96328.22;4989045;28;20103;-81
2023/05/10 10:37:45;;;;;;;1.10;0.98;;;;;;;16.08;74.22;96330.66;4990086;23;20055;-80
2023/05/10 16:09:51;;;;;;;2.88;1.80;;;;;;;15.82;65.30;96407.03;5388322;23;20059;-76
2023/05/10 16:12:19;;;;;;;2.30;0.90;;;;;;;15.83;67.17;96410.47;4916427;29;20136;-76
2023/05/10 16:14:46;;;;;;;2.15;1.05;;;;;;;15.84;64.57;96409.47;4916447;29;20500;-76
2023/05/10 16:17:14;;;;;;;2.85;1.13;;;;;;;15.80;62.94;96405.66;4916033;29;20056;-76
2023/05/10 16:19:42;;;;;;;2.13;0.75;;;;;;;15.76;64.96;96404.47;4907165;29;20052;-77
2023/05/10 16:22:10;;;;;;;3.25;0.80;;;;;;;15.77;65.88;96408.72;4898696;29;20067;-77
2023/05/10 16:24:37;;;;;;;1.35;0.57;;;;;;;15.72;63.77;96409.41;4897836;29;20405;-77
2023/05/10 16:27:06;;;;;;;2.35;0.98;;;;;;;15.71;65.64;96410.41;4897715;29;20048;-78
2023/05/10 16:29:34;;;;;;;1.98;1.00;;;;;;;15.71;64.26;96412.19;4908273;29;20067;-76
2023/05/10 16:32:02;;;;;;;2.13;0.90;;;;;;;15.73;66.05;96415.44;4900329;29;20059;-77
2023/05/10 16:34:29;;;;;;;2.47;0.88;;;;;;;15.73;63.33;96412.81;4902243;29;20527;-77
2023/05/10 16:36:57;;;;;;;1.50;0.82;;;;;;;15.69;63.04;96422.13;4935555;29;20534;-76
2023/05/10 16:39:24;;;;;;;1.50;0.80;;;;;;;15.68;63.83;96418.72;4917036;29;20053;-76
2023/05/10 16:41:52;;;;;;;3.35;1.15;;;;;;;15.72;66.50;96413.81;4897994;29;20052;-77
2023/05/10 16:44:21;;;;;;;2.58;1.17;;;;;;;15.74;67.60;96414.41;4897694;29;20079;-77
2023/05/10 16:46:53;;;;;;;1.30;0.80;;;;;;;15.73;67.58;96413.63;4898307;29;20049;-78
2023/05/10 16:49:21;;;;;;;2.40;1.05;;;;;;;15.76;67.83;96420.25;4915329;29;20052;-76
2023/05/10 16:51:52;;;;;;;2.80;1.00;;;;;;;15.77;68.07;96421.88;4900453;29;20505;-76
2023/05/10 16:54:20;;;;;;;2.30;0.90;;;;;;;15.77;68.46;96430.56;4896829;29;20055;-76
2023/05/10 16:56:48;;;;;;;2.78;1.17;;;;;;;15.75;67.59;96429.19;4897586;29;20053;-76
2023/05/10 16:59:16;;;;;;;1.25;1.10;;;;;;;15.74;68.26;96427.56;4897270;29;20059;-76
2023/05/10 17:01:45;;;;;;;2.38;1.45;;;;;;;15.71;66.95;96427.97;4897022;29;20059;-76
2023/05/10 17:04:13;;;;;;;3.03;1.23;;;;;;;15.71;67.93;96427.97;4900555;29;20099;-76
2023/05/10 17:06:41;;;;;;;2.83;1.92;;;;;;;15.70;69.43;96431.63;4909145;29;20476;-76
2023/05/10 17:09:08;;;;;;;2.45;2.10;;;;;;;15.64;66.24;96434.09;4919937;29;20067;-77
2023/05/10 17:11:36;;;;;;;3.70;1.48;;;;;;;15.58;65.05;96434.16;4929591;29;20095;-77
2023/05/10 17:14:04;;;;;;;6.75;3.72;;;;;;;15.58;68.63;96440.22;4910986;29;20059;-76
2023/05/10 17:16:31;;;;;;;3.05;1.23;;;;;;;15.60;68.93;96442.66;4903279;29;20045;-76